Time;durP1;ratioP1;P1;durP2;ratioP2;P2;SDS_P1;SDS_P2;PMS_P1;PMS_P2;Temp;Humidity;BMP_temperature;BMP_pressure;BME280_temperature;BME280_humidity;BME280_pressure;Samples;Min_cycle;Max_cycle;Signal;HPM_P1;HPM_P2
2023/04/18 00:01:55;;;;;;;1.30;1.20;;;;;;;18.92;32.67;99970.06;104658;1253;73786;-65
2023/04/18 00:04:24;;;;;;;3.00;1.50;;;;;;;18.89;32.62;99968.84;104458;1251;69882;-63
2023/04/18 00:06:52;;;;;;;1.50;1.30;;;;;;;18.91;32.79;99969.46;104545;1255;74505;-63
2023/04/18 00:09:20;;;;;;;1.40;1.30;;;;;;;18.93;32.79;99966.80;104524;1252;61085;-62
2023/04/18 00:11:49;;;;;;;1.60;1.50;;;;;;;18.94;32.66;99969.23;106632;1251;60441;-63
2023/04/18 00:14:18;;;;;;;2.60;1.60;;;;;;;18.90;32.72;99969.49;105916;1251;73627;-63
2023/04/18 00:16:47;;;;;;;2.70;1.30;;;;;;;18.89;32.80;99967.09;104535;1272;68536;-63
2023/04/18 00:19:17;;;;;;;1.30;1.20;;;;;;;18.88;32.66;99970.42;105091;1251;72879;-63
2023/04/18 00:21:45;;;;;;;4.30;1.60;;;;;;;18.84;32.73;99969.58;104872;1251;60911;-63
2023/04/18 00:24:14;;;;;;;1.90;1.30;;;;;;;18.82;32.76;99969.00;104589;1254;60548;-63
2023/04/18 00:26:42;;;;;;;1.90;1.50;;;;;;;18.87;32.66;99968.66;104489;1257;73543;-62
2023/04/18 00:29:11;;;;;;;3.20;1.50;;;;;;;18.82;32.94;99970.27;104724;1257;68854;-62
2023/04/18 00:31:39;;;;;;;2.10;1.30;;;;;;;18.76;33.08;99967.66;104442;1263;72811;-63
2023/04/18 00:34:07;;;;;;;2.90;1.30;;;;;;;18.70;33.12;99967.75;104727;1257;60578;-62
2023/04/18 00:36:36;;;;;;;2.20;1.40;;;;;;;18.66;33.39;99968.19;104754;1260;61870;-63
2023/04/18 00:39:05;;;;;;;2.70;1.40;;;;;;;18.63;33.53;99968.91;108233;1250;74075;-64
2023/04/18 00:41:34;;;;;;;3.40;1.40;;;;;;;18.63;33.42;99966.96;106354;1250;70266;-63
2023/04/18 00:44:02;;;;;;;2.70;1.90;;;;;;;18.60;33.70;99963.08;104519;1254;73109;-62
2023/04/18 00:46:30;;;;;;;1.80;1.60;;;;;;;18.57;33.75;99959.56;104603;1253;60555;-62
2023/04/18 00:48:59;;;;;;;1.40;1.30;;;;;;;18.55;33.85;99958.14;104529;1257;60420;-63
2023/04/18 00:51:28;;;;;;;1.40;1.30;;;;;;;18.56;33.64;99956.45;104710;1256;74211;-62
2023/04/18 00:53:56;;;;;;;1.60;1.40;;;;;;;18.57;33.85;99956.60;104774;1257;68381;-62
2023/04/18 00:56:25;;;;;;;2.40;1.50;;;;;;;18.51;33.42;99954.69;104417;1266;72907;-62
2023/04/18 00:58:53;;;;;;;2.90;1.80;;;;;;;18.48;33.55;99955.09;104563;1257;60539;-62
2023/04/18 01:01:22;;;;;;;2.70;1.40;;;;;;;18.44;33.76;99955.35;104427;1255;60584;-62
2023/04/18 01:03:50;;;;;;;4.70;1.80;;;;;;;18.40;33.69;99954.40;104460;1257;74051;-62
2023/04/18 01:06:19;;;;;;;3.80;1.70;;;;;;;18.39;33.47;99954.27;104765;1251;70407;-63
2023/04/18 01:08:47;;;;;;;2.70;1.30;;;;;;;18.41;33.44;99951.11;105380;1257;72892;-62
2023/04/18 01:11:18;;;;;;;2.30;1.60;;;;;;;18.43;33.59;99952.73;104665;1255;60503;-63
2023/04/18 01:14:04;;;;;;;1.60;1.30;;;;;;;18.43;33.80;99949.23;104475;1256;60501;-62
2023/04/18 01:16:38;;;;;;;4.00;1.70;;;;;;;18.39;33.83;99950.55;104557;1257;73024;-63
2023/04/18 01:19:07;;;;;;;1.20;1.10;;;;;;;18.39;33.70;99952.50;104714;1252;69809;-61
2023/04/18 01:21:36;;;;;;;2.40;1.50;;;;;;;18.35;33.85;99953.91;104642;1256;72788;-63
2023/04/18 01:24:14;;;;;;;1.60;1.50;;;;;;;18.28;34.05;99953.46;104556;1256;60615;-62
2023/04/18 01:26:44;;;;;;;2.30;1.50;;;;;;;18.31;34.06;99951.28;104655;1251;60556;-62
2023/04/18 01:29:13;;;;;;;2.80;1.40;;;;;;;18.33;34.02;99953.11;104679;1255;73286;-62
2023/04/18 01:31:41;;;;;;;1.90;1.50;;;;;;;18.30;34.07;99954.41;104773;1251;69722;-62
2023/04/18 01:34:10;;;;;;;2.10;1.40;;;;;;;18.22;33.79;99953.30;104614;1254;72341;-62
2023/04/18 01:36:41;;;;;;;2.20;2.00;;;;;;;18.20;33.96;99955.05;104727;1255;60452;-62
2023/04/18 01:39:12;;;;;;;1.70;1.50;;;;;;;18.16;33.83;99954.47;104684;1257;60562;-63
2023/04/18 01:41:40;;;;;;;2.30;1.40;;;;;;;18.15;33.93;99954.00;104424;1266;74196;-62
2023/04/18 01:44:09;;;;;;;1.50;1.40;;;;;;;18.13;33.92;99947.27;104565;1254;68780;-62
2023/04/18 01:46:39;;;;;;;2.60;1.40;;;;;;;18.12;33.94;99947.28;104537;1271;71662;-63
2023/04/18 01:49:09;;;;;;;1.60;1.50;;;;;;;18.12;33.91;99950.86;104566;1254;60561;-63
2023/04/18 01:51:38;;;;;;;1.80;1.60;;;;;;;18.10;33.86;99950.08;104497;1257;60558;-63
2023/04/18 01:54:06;;;;;;;1.50;1.30;;;;;;;18.09;34.26;99948.95;104514;1266;73231;-62
2023/04/18 01:56:35;;;;;;;1.80;1.60;;;;;;;18.08;34.33;99949.03;104437;1257;68475;-62
2023/04/18 01:59:03;;;;;;;2.60;1.90;;;;;;;18.08;34.34;99950.93;104352;1257;71573;-62
2023/04/18 02:01:32;;;;;;;4.20;1.70;;;;;;;18.10;34.15;99949.26;104658;1257;60827;-62
2023/04/18 02:04:00;;;;;;;5.50;1.60;;;;;;;18.07;34.11;99949.58;104549;1254;60452;-63
2023/04/18 02:06:29;;;;;;;1.70;1.30;;;;;;;18.07;34.27;99949.98;104481;1257;73007;-64
2023/04/18 02:08:59;;;;;;;1.50;1.40;;;;;;;18.05;34.07;99947.77;104769;1259;70210;-63
2023/04/18 02:11:28;;;;;;;2.50;1.90;;;;;;;18.01;34.07;99948.93;104536;1257;72287;-63
2023/04/18 02:13:58;;;;;;;1.70;1.50;;;;;;;18.02;34.31;99948.54;104564;1257;60908;-63
2023/04/18 02:16:27;;;;;;;1.50;1.40;;;;;;;18.05;34.38;99948.16;104437;1251;60444;-62
2023/04/18 02:18:56;;;;;;;1.90;1.40;;;;;;;18.06;34.18;99948.59;104740;1253;73175;-63
2023/04/18 02:21:24;;;;;;;2.40;1.40;;;;;;;18.02;34.26;99947.09;104878;1254;70002;-63
2023/04/18 02:23:52;;;;;;;2.30;1.70;;;;;;;18.02;34.25;99950.96;104457;1255;73202;-63
2023/04/18 02:26:22;;;;;;;2.00;1.60;;;;;;;18.07;34.22;99950.48;104474;1270;60568;-62
2023/04/18 02:28:50;;;;;;;1.90;1.40;;;;;;;18.06;34.07;99951.80;104614;1257;60452;-65
2023/04/18 02:31:18;;;;;;;2.40;1.60;;;;;;;18.05;34.06;99949.17;104683;1257;74427;-65
2023/04/18 02:33:47;;;;;;;1.50;1.40;;;;;;;18.09;34.02;99948.08;104484;1273;68308;-64
2023/04/18 02:36:15;;;;;;;2.30;1.30;;;;;;;18.10;34.10;99944.02;105108;1252;71811;-63
2023/04/18 02:38:44;;;;;;;2.10;1.40;;;;;;;18.13;33.98;99947.22;104611;1256;60613;-64
2023/04/18 02:41:16;;;;;;;2.80;1.80;;;;;;;18.13;34.12;99945.98;105363;1250;60553;-65
2023/04/18 02:43:44;;;;;;;2.10;1.30;;;;;;;18.13;34.19;99943.70;108605;1251;74131;-64
2023/04/18 02:46:14;;;;;;;1.50;1.40;;;;;;;18.11;34.11;99944.92;108556;1250;68816;-64
2023/04/18 02:48:44;;;;;;;1.60;1.50;;;;;;;18.10;34.32;99946.88;108419;1256;73452;-64
2023/04/18 02:51:12;;;;;;;2.20;1.90;;;;;;;18.10;34.29;99945.16;105721;1250;60559;-63
2023/04/18 02:53:41;;;;;;;2.30;2.10;;;;;;;18.11;34.22;99943.14;104651;1266;60518;-64
2023/04/18 02:56:10;;;;;;;2.40;1.70;;;;;;;18.10;34.22;99940.20;104430;1260;72675;-64
2023/04/18 02:58:58;;;;;;;2.60;1.80;;;;;;;18.10;34.51;99932.35;104651;1253;68932;-64
2023/04/18 03:01:37;;;;;;;4.30;1.60;;;;;;;18.11;34.38;99937.28;104555;1256;71928;-64
2023/04/18 03:04:12;;;;;;;2.40;1.60;;;;;;;18.08;34.43;99940.83;104553;1249;60481;-64
2023/04/18 03:06:52;;;;;;;2.50;1.90;;;;;;;18.08;34.37;99938.16;104588;1256;60617;-63
2023/04/18 03:09:20;;;;;;;2.60;2.00;;;;;;;18.11;34.20;99937.62;104602;1266;74059;-66
2023/04/18 03:11:52;;;;;;;2.20;1.70;;;;;;;18.07;34.52;99940.59;104453;1257;70158;-63
2023/04/18 03:14:24;;;;;;;2.60;1.80;;;;;;;18.08;34.41;99937.48;104657;1257;72684;-63
2023/04/18 03:16:55;;;;;;;1.90;1.60;;;;;;;18.03;34.64;99936.02;104542;1254;60564;-62
2023/04/18 03:19:27;;;;;;;2.00;1.80;;;;;;;18.06;34.81;99943.62;104638;1256;60485;-63
2023/04/18 03:21:56;;;;;;;2.30;1.70;;;;;;;18.08;34.72;99943.13;104406;1267;73423;-65
2023/04/18 03:24:25;;;;;;;2.20;1.60;;;;;;;18.12;34.61;99945.72;104676;1254;70974;-64
2023/04/18 03:26:53;;;;;;;2.10;1.90;;;;;;;18.14;34.58;99946.98;104562;1256;72620;-65
2023/04/18 03:29:24;;;;;;;2.80;1.90;;;;;;;18.16;34.69;99946.02;104642;1251;60555;-65
2023/04/18 03:31:52;;;;;;;4.00;2.10;;;;;;;18.15;34.45;99949.24;104361;1270;60522;-66
2023/04/18 03:34:20;;;;;;;2.30;2.00;;;;;;;18.13;34.46;99949.58;104576;1257;73560;-67
2023/04/18 03:36:49;;;;;;;2.20;2.00;;;;;;;18.10;34.18;99954.34;104396;1269;69078;-65
2023/04/18 03:39:17;;;;;;;3.10;2.00;;;;;;;18.15;34.40;99955.95;104588;1259;72238;-65
2023/04/18 03:41:46;;;;;;;3.50;2.10;;;;;;;18.15;34.38;99955.99;104452;1270;60471;-65
2023/04/18 03:44:15;;;;;;;3.80;1.80;;;;;;;18.09;34.42;99959.39;104421;1267;60421;-65
2023/04/18 03:46:43;;;;;;;2.40;1.70;;;;;;;18.12;34.47;99955.14;104681;1250;73820;-65
2023/04/18 03:49:12;;;;;;;5.20;1.90;;;;;;;18.17;34.31;99958.84;104464;1255;68803;-65
2023/04/18 03:51:48;;;;;;;2.90;2.10;;;;;;;18.17;34.30;99956.88;104404;1257;73135;-65
2023/04/18 03:54:18;;;;;;;3.40;2.20;;;;;;;18.20;34.30;99956.34;104561;1256;60462;-65
2023/04/18 03:56:46;;;;;;;2.30;1.90;;;;;;;18.22;34.34;99954.77;104385;1257;61150;-65
2023/04/18 03:59:16;;;;;;;2.10;1.80;;;;;;;18.20;34.37;99956.14;104358;1273;73372;-64
2023/04/18 04:01:46;;;;;;;2.00;1.80;;;;;;;18.19;34.57;99956.90;104346;1272;69577;-66
2023/04/18 04:04:15;;;;;;;2.60;1.90;;;;;;;18.23;34.59;99953.41;104405;1254;72518;-64
2023/04/18 04:06:44;;;;;;;2.20;1.80;;;;;;;18.28;34.81;99956.63;104719;1255;60553;-63
2023/04/18 04:09:13;;;;;;;3.50;2.40;;;;;;;18.30;34.49;99956.69;104455;1254;61592;-64
2023/04/18 04:11:42;;;;;;;4.70;2.20;;;;;;;18.36;34.40;99950.42;104431;1261;73836;-62
2023/04/18 04:14:11;;;;;;;4.70;2.00;;;;;;;18.39;34.57;99952.88;104619;1257;69518;-62
2023/04/18 04:16:43;;;;;;;3.10;2.10;;;;;;;18.46;34.92;99957.38;104492;1270;71584;-61
2023/04/18 04:19:13;;;;;;;2.70;2.20;;;;;;;18.49;34.51;99956.83;104448;1256;60580;-61
2023/04/18 04:21:49;;;;;;;4.60;2.00;;;;;;;18.53;34.38;99956.15;104449;1257;61047;-69
2023/04/18 04:24:19;;;;;;;2.40;2.00;;;;;;;18.55;34.48;99952.64;104618;1257;73468;-68
2023/04/18 04:26:49;;;;;;;2.80;2.00;;;;;;;18.51;34.57;99949.70;104752;1256;69114;-70
2023/04/18 04:29:20;;;;;;;3.60;2.20;;;;;;;18.48;34.61;99955.78;104585;1274;72929;-70
2023/04/18 04:31:48;;;;;;;2.20;1.90;;;;;;;18.46;34.81;99957.19;104494;1251;60466;-66
2023/04/18 04:34:24;;;;;;;2.10;1.70;;;;;;;18.49;34.75;99947.90;104383;1265;60536;-66
2023/04/18 04:36:53;;;;;;;3.80;2.00;;;;;;;18.44;34.81;99940.30;104478;1260;73320;-68
2023/04/18 04:39:23;;;;;;;5.00;2.20;;;;;;;18.39;34.97;99939.54;104551;1268;68988;-67
2023/04/18 04:42:24;;;;;;;4.30;2.10;;;;;;;18.36;35.16;99950.27;104362;1264;71564;-68
2023/04/18 04:45:01;;;;;;;3.00;2.10;;;;;;;18.40;35.12;99944.43;104824;1269;60583;-68
2023/04/18 04:47:30;;;;;;;2.90;1.90;;;;;;;18.39;35.20;99949.50;104555;1258;60582;-67
2023/04/18 04:49:59;;;;;;;2.70;1.90;;;;;;;18.48;35.17;99953.98;104488;1251;74346;-66
2023/04/18 04:52:27;;;;;;;2.80;2.40;;;;;;;18.55;34.68;99959.95;104574;1261;70131;-67
2023/04/18 04:54:56;;;;;;;2.70;2.10;;;;;;;18.61;35.00;99966.77;104601;1254;73013;-65
2023/04/18 04:57:25;;;;;;;4.30;2.00;;;;;;;18.71;34.86;99974.09;104911;1251;60446;-64
2023/04/18 04:59:54;;;;;;;1.80;1.60;;;;;;;18.77;34.89;99972.38;104457;1257;60523;-67
2023/04/18 05:02:25;;;;;;;2.80;2.00;;;;;;;18.85;34.76;99968.45;104918;1251;73684;-64
2023/04/18 05:04:54;;;;;;;3.40;2.10;;;;;;;18.93;34.67;99967.02;104724;1251;68618;-67
2023/04/18 05:07:23;;;;;;;3.00;2.00;;;;;;;19.02;34.56;99971.65;105304;1251;72706;-62
2023/04/18 05:09:52;;;;;;;3.70;2.10;;;;;;;19.12;34.53;99968.32;104985;1254;60516;-64
2023/04/18 05:12:20;;;;;;;2.60;2.10;;;;;;;19.21;34.21;99969.18;104411;1255;60571;-63
2023/04/18 05:14:49;;;;;;;3.00;2.20;;;;;;;19.28;34.10;99972.63;104628;1254;72862;-64
2023/04/18 05:17:17;;;;;;;2.20;2.00;;;;;;;19.31;34.05;99972.91;104633;1256;69467;-65
2023/04/18 05:19:45;;;;;;;2.20;2.00;;;;;;;19.35;34.09;99975.14;105035;1251;72701;-65
2023/04/18 05:22:14;;;;;;;3.70;2.50;;;;;;;19.42;34.05;99977.07;104703;1254;60568;-64
2023/04/18 05:24:42;;;;;;;3.60;2.00;;;;;;;19.49;33.96;99979.94;104993;1254;60555;-64
2023/04/18 05:27:11;;;;;;;2.80;2.30;;;;;;;19.53;33.95;99980.89;104668;1262;74626;-63
2023/04/18 05:29:40;;;;;;;2.40;2.20;;;;;;;19.58;33.96;99979.43;104644;1267;68693;-63
2023/04/18 05:32:08;;;;;;;3.80;2.40;;;;;;;19.62;33.76;99978.09;104673;1253;72013;-63
2023/04/18 05:34:37;;;;;;;3.00;2.50;;;;;;;19.61;33.84;99978.89;104615;1251;61108;-65
2023/04/18 05:37:05;;;;;;;4.00;2.60;;;;;;;19.63;33.94;99981.60;104715;1251;60572;-67
2023/04/18 05:39:34;;;;;;;3.40;2.70;;;;;;;19.65;33.96;99982.46;104946;1254;73450;-63
2023/04/18 05:42:03;;;;;;;3.70;2.40;;;;;;;19.63;34.09;99983.84;104604;1257;70418;-65
2023/04/18 05:44:32;;;;;;;4.10;2.80;;;;;;;19.68;34.16;99982.63;104389;1258;73016;-64
2023/04/18 05:47:04;;;;;;;3.40;2.30;;;;;;;19.68;33.94;99982.77;104603;1255;60558;-63
2023/04/18 05:49:33;;;;;;;5.00;2.30;;;;;;;19.71;33.84;99982.11;104507;1254;60572;-65
2023/04/18 05:52:02;;;;;;;2.50;2.20;;;;;;;19.78;34.03;99984.19;104811;1258;73100;-64
2023/04/18 05:54:31;;;;;;;3.40;2.30;;;;;;;19.86;33.87;99978.62;104672;1254;68722;-63
2023/04/18 05:56:59;;;;;;;4.10;2.30;;;;;;;19.90;33.73;99980.63;104390;1257;71563;-63
2023/04/18 05:59:31;;;;;;;2.70;2.40;;;;;;;19.96;33.85;99977.87;104341;1269;60612;-63
2023/04/18 06:01:59;;;;;;;2.70;2.10;;;;;;;20.06;33.75;99978.52;104443;1256;60569;-63
2023/04/18 06:04:28;;;;;;;3.90;2.20;;;;;;;20.15;33.82;99977.65;104397;1257;74148;-63
2023/04/18 06:06:57;;;;;;;3.90;2.60;;;;;;;20.19;33.60;99976.83;104571;1264;68766;-62
2023/04/18 06:09:25;;;;;;;4.00;2.20;;;;;;;20.18;33.40;99977.73;104512;1254;71801;-62
2023/04/18 06:11:54;;;;;;;4.10;2.60;;;;;;;20.26;33.52;99977.02;104406;1261;60479;-63
2023/04/18 06:14:22;;;;;;;6.10;2.30;;;;;;;20.28;33.45;99979.34;104849;1254;60453;-63
2023/04/18 06:16:51;;;;;;;2.80;2.10;;;;;;;20.35;33.54;99982.64;104720;1256;72906;-68
2023/04/18 06:19:19;;;;;;;2.50;2.30;;;;;;;20.44;33.77;99982.48;104637;1254;70732;-62
2023/04/18 06:21:48;;;;;;;2.60;2.10;;;;;;;20.53;33.67;99980.35;104612;1257;72357;-63
2023/04/18 06:24:16;;;;;;;2.40;2.10;;;;;;;20.63;33.31;99979.64;104485;1255;60508;-61
2023/04/18 06:26:45;;;;;;;2.50;1.80;;;;;;;20.61;32.95;99977.96;104359;1270;60580;-62
2023/04/18 06:29:13;;;;;;;3.40;1.90;;;;;;;20.62;33.05;99982.70;104749;1267;73378;-61
2023/04/18 06:31:44;;;;;;;2.70;2.30;;;;;;;20.65;33.13;99981.59;104380;1256;68422;-62
2023/04/18 06:34:12;;;;;;;2.80;2.20;;;;;;;20.72;33.26;99978.59;104426;1254;72775;-62
2023/04/18 06:36:41;;;;;;;2.60;2.20;;;;;;;20.82;33.45;99979.36;104417;1258;60555;-61
2023/04/18 06:39:10;;;;;;;3.50;1.90;;;;;;;20.79;33.21;99980.14;104873;1254;60417;-63
2023/04/18 06:41:38;;;;;;;4.00;2.20;;;;;;;20.79;33.44;99974.40;104516;1256;72839;-62
2023/04/18 06:44:07;;;;;;;2.80;2.20;;;;;;;20.87;33.34;99979.34;104760;1253;69486;-62
2023/04/18 06:46:35;;;;;;;3.90;2.20;;;;;;;20.91;33.15;99979.14;104966;1251;72315;-63
2023/04/18 06:49:03;;;;;;;3.80;2.60;;;;;;;20.91;33.06;99980.63;104873;1251;60571;-62
2023/04/18 06:51:33;;;;;;;3.00;2.10;;;;;;;20.98;33.37;99981.48;104558;1251;60552;-62
2023/04/18 06:54:01;;;;;;;4.10;2.00;;;;;;;21.08;33.38;99984.23;105032;1256;73338;-59
2023/04/18 06:56:29;;;;;;;4.70;2.10;;;;;;;21.19;33.39;99981.52;105053;1251;327967;-59
2023/04/18 07:00:06;;;;;;;2.40;2.00;;;;;;;20.15;35.99;99986.05;101791;1290;601513;-58
2023/04/18 07:02:36;;;;;;;4.80;2.50;;;;;;;21.25;33.45;99978.16;103931;1264;60301;-57
2023/04/18 07:05:06;;;;;;;5.80;1.80;;;;;;;21.20;33.16;99980.77;104019;1269;60280;-58
2023/04/18 07:07:34;;;;;;;3.80;2.70;;;;;;;21.24;33.44;99978.65;103962;1276;72919;-60
2023/04/18 07:10:04;;;;;;;2.20;1.80;;;;;;;21.36;33.40;99978.39;103907;1280;68873;-58
2023/04/18 07:12:32;;;;;;;2.70;2.10;;;;;;;21.42;33.38;99974.36;103614;1268;342710;-58
2023/04/18 07:15:02;;;;;;;6.00;2.10;;;;;;;21.51;33.30;99974.70;103919;1264;60398;-57
2023/04/18 07:17:31;;;;;;;2.60;2.20;;;;;;;21.53;33.47;99978.22;103931;1271;60889;-58
2023/04/18 07:19:59;;;;;;;3.50;2.20;;;;;;;21.61;33.41;99977.07;104198;1262;71664;-58
2023/04/18 07:22:28;;;;;;;3.80;2.10;;;;;;;21.75;33.24;99969.80;103979;1267;69846;-58
2023/04/18 07:24:56;;;;;;;3.00;2.30;;;;;;;21.83;33.20;99971.42;104087;1261;72970;-58
2023/04/18 07:27:25;;;;;;;3.90;2.40;;;;;;;21.88;33.24;99966.94;103966;1266;60004;-58
2023/04/18 07:29:54;;;;;;;3.60;2.10;;;;;;;21.85;33.16;99966.99;104202;1264;59647;-59
2023/04/18 07:32:22;;;;;;;3.10;1.60;;;;;;;21.90;33.05;99965.71;104059;1277;73458;-60
2023/04/18 07:34:51;;;;;;;4.00;1.60;;;;;;;21.96;33.04;99964.61;103997;1264;69683;-60
2023/04/18 07:37:22;;;;;;;6.50;2.10;;;;;;;22.06;32.91;99963.98;104317;1265;71900;-59
2023/04/18 07:39:50;;;;;;;2.00;1.70;;;;;;;22.17;33.06;99962.71;104197;1264;59863;-59
2023/04/18 07:42:19;;;;;;;11.00;2.20;;;;;;;22.18;32.96;99959.39;103930;1270;59842;-62
2023/04/18 07:44:48;;;;;;;2.30;1.80;;;;;;;22.21;32.90;99955.54;104022;1261;73394;-61
2023/04/18 07:47:17;;;;;;;4.00;1.50;;;;;;;22.23;32.82;99954.48;104007;1265;70334;-59
2023/04/18 07:49:49;;;;;;;5.30;1.60;;;;;;;22.29;32.55;99956.80;103824;1265;74130;-60
2023/04/18 07:52:18;;;;;;;1.60;1.50;;;;;;;22.32;32.98;99958.00;104027;1264;59707;-59
2023/04/18 07:54:46;;;;;;;6.90;2.00;;;;;;;22.41;32.66;99955.11;103856;1261;61270;-59
2023/04/18 07:57:15;;;;;;;2.70;1.70;;;;;;;22.47;32.44;99954.34;103960;1270;73855;-60
2023/04/18 07:59:43;;;;;;;2.20;1.50;;;;;;;22.56;32.56;99948.80;103880;1266;69064;-61
2023/04/18 08:02:12;;;;;;;2.70;1.90;;;;;;;22.54;32.63;99948.74;103900;1267;72000;-59
2023/04/18 08:04:40;;;;;;;3.10;1.40;;;;;;;22.65;32.77;99946.21;103891;1265;59821;-59
2023/04/18 08:07:09;;;;;;;3.60;1.60;;;;;;;22.77;32.56;99948.36;104037;1266;60198;-59
2023/04/18 08:09:38;;;;;;;4.40;1.60;;;;;;;22.85;32.05;99947.29;104469;1266;72428;-58
2023/04/18 08:12:06;;;;;;;3.80;1.50;;;;;;;22.84;31.98;99945.54;104098;1264;69692;-58
2023/04/18 08:14:35;;;;;;;5.10;1.60;;;;;;;22.86;32.06;99943.42;105974;1264;72884;-58
2023/04/18 08:17:03;;;;;;;6.00;1.90;;;;;;;22.95;31.66;99948.33;107331;1262;60938;-59
2023/04/18 08:19:32;;;;;;;2.70;1.50;;;;;;;23.05;31.99;99945.15;107296;1263;60521;-61
2023/04/18 08:22:08;;;;;;;1.70;1.10;;;;;;;23.06;31.95;99942.05;108442;1254;73513;-61
2023/04/18 08:24:37;;;;;;;3.40;1.30;;;;;;;23.14;31.67;99945.28;108426;1253;69768;-61
2023/04/18 08:27:05;;;;;;;3.20;1.20;;;;;;;23.07;31.69;99945.48;107436;1254;73313;-60
2023/04/18 08:29:35;;;;;;;6.40;1.40;;;;;;;23.05;31.85;99942.98;106605;1256;60993;-63
2023/04/18 08:32:06;;;;;;;5.30;2.00;;;;;;;23.00;31.49;99944.30;104728;1254;59894;-61
2023/04/18 08:34:35;;;;;;;4.50;1.30;;;;;;;22.98;31.31;99943.75;104827;1256;72407;-63
2023/04/18 08:37:03;;;;;;;4.30;1.50;;;;;;;23.00;31.29;99942.95;104636;1256;70279;-61
2023/04/18 08:39:32;;;;;;;3.70;1.30;;;;;;;23.02;31.35;99939.85;104496;1254;72229;-61
2023/04/18 08:42:02;;;;;;;4.40;1.40;;;;;;;23.01;31.00;99940.32;104723;1256;60240;-60
2023/04/18 08:44:31;;;;;;;2.30;1.30;;;;;;;22.94;30.81;99937.38;104457;1256;60539;-62
2023/04/18 08:47:00;;;;;;;3.10;1.40;;;;;;;22.89;31.00;99939.90;104445;1260;72533;-60
2023/04/18 08:49:30;;;;;;;3.00;1.80;;;;;;;22.85;30.60;99939.05;104259;1264;69835;-59
2023/04/18 08:51:59;;;;;;;3.20;1.20;;;;;;;22.85;31.02;99937.27;104779;1256;72233;-61
2023/04/18 08:54:29;;;;;;;2.50;1.20;;;;;;;22.94;30.94;99935.40;104637;1253;60216;-59
2023/04/18 08:57:08;;;;;;;1.70;1.40;;;;;;;23.02;30.84;99931.51;104658;1267;59653;-59
2023/04/18 08:59:37;;;;;;;3.40;1.20;;;;;;;23.14;31.01;99933.42;104832;1257;72262;-60
2023/04/18 09:02:07;;;;;;;2.80;1.30;;;;;;;23.23;30.91;99928.15;104371;1257;69017;-60
2023/04/18 09:04:38;;;;;;;2.70;1.20;;;;;;;23.27;30.89;99926.67;104391;1273;71852;-60
2023/04/18 09:07:09;;;;;;;3.80;1.70;;;;;;;23.34;30.85;99923.58;104304;1255;60210;-60
2023/04/18 09:09:46;;;;;;;1.80;1.20;;;;;;;23.46;30.55;99923.86;104482;1256;59762;-60
2023/04/18 09:12:17;;;;;;;2.50;1.50;;;;;;;23.59;30.40;99920.18;104598;1257;71904;-60
2023/04/18 09:14:50;;;;;;;2.90;1.60;;;;;;;23.74;30.51;99918.25;104400;1256;68503;-60
2023/04/18 09:17:36;;;;;;;5.60;1.40;;;;;;;23.88;30.33;99915.23;104345;1254;73322;-61
2023/04/18 09:20:08;;;;;;;3.80;1.40;;;;;;;23.94;30.52;99914.45;104444;1252;59893;-58
2023/04/18 09:23:05;;;;;;;5.20;1.40;;;;;;;24.08;30.69;99916.00;104547;1257;60473;-60
2023/04/18 09:25:38;;;;;;;2.60;1.60;;;;;;;24.19;30.27;99911.15;104491;1256;73280;-61
2023/04/18 09:28:23;;;;;;;1.70;1.40;;;;;;;24.28;30.39;99912.64;104300;1267;68941;-61
2023/04/18 09:30:51;;;;;;;3.90;1.60;;;;;;;24.32;30.12;99914.27;104866;1257;72116;-62
2023/04/18 09:33:28;;;;;;;1.90;1.50;;;;;;;24.29;30.13;99917.16;104530;1256;61338;-62
2023/04/18 09:36:17;;;;;;;6.00;1.90;;;;;;;24.23;29.85;99917.08;104532;1257;60396;-61
2023/04/18 09:38:46;;;;;;;4.60;1.60;;;;;;;24.22;30.12;99915.95;104323;1258;71650;-62
2023/04/18 09:41:15;;;;;;;1.90;1.30;;;;;;;24.17;29.98;99915.73;104446;1256;69213;-63
2023/04/18 09:43:48;;;;;;;1.90;1.40;;;;;;;24.03;29.62;99915.59;104427;1254;72630;-62
2023/04/18 09:46:16;;;;;;;2.70;1.40;;;;;;;23.97;30.25;99918.96;104696;1252;59704;-62
2023/04/18 09:48:45;;;;;;;3.80;1.50;;;;;;;23.91;30.26;99921.38;104326;1257;60706;-62
2023/04/18 09:51:14;;;;;;;1.30;1.20;;;;;;;23.81;30.34;99922.50;104399;1257;73201;-61
2023/04/18 09:53:43;;;;;;;1.60;1.30;;;;;;;23.72;30.58;99915.42;104909;1257;69841;-60
2023/04/18 09:56:24;;;;;;;1.40;1.30;;;;;;;23.66;30.38;99914.86;104354;1267;71869;-60
2023/04/18 09:59:00;;;;;;;3.70;1.20;;;;;;;23.61;30.42;99913.20;104659;1256;59832;-62
2023/04/18 10:01:29;;;;;;;3.20;1.40;;;;;;;23.56;30.45;99913.66;104785;1259;60351;-63
2023/04/18 10:03:58;;;;;;;1.30;1.20;;;;;;;23.53;30.50;99912.93;104649;1259;74446;-61
2023/04/18 10:06:27;;;;;;;2.00;1.20;;;;;;;23.49;30.60;99915.00;104605;1254;69204;-62
2023/04/18 10:08:56;;;;;;;1.70;1.20;;;;;;;23.38;30.61;99913.75;104692;1261;73228;-61
2023/04/18 10:11:24;;;;;;;3.00;1.30;;;;;;;23.35;30.54;99913.28;104346;1258;60296;-61
2023/04/18 10:13:55;;;;;;;3.80;1.50;;;;;;;23.27;30.69;99917.77;104646;1260;60395;-62
2023/04/18 10:16:24;;;;;;;2.70;1.30;;;;;;;23.25;30.52;99913.14;104543;1256;73342;-62
2023/04/18 10:18:53;;;;;;;1.90;1.00;;;;;;;23.22;30.87;99910.38;104673;1253;70139;-63
2023/04/18 10:21:21;;;;;;;4.50;1.30;;;;;;;23.19;30.81;99910.99;104900;1255;72228;-61
2023/04/18 10:23:49;;;;;;;1.80;1.20;;;;;;;23.15;30.82;99911.58;104357;1269;60369;-61
2023/04/18 10:26:18;;;;;;;2.40;1.30;;;;;;;23.09;31.17;99911.37;104391;1257;60154;-62
2023/04/18 10:28:57;;;;;;;2.70;1.10;;;;;;;23.00;31.00;99904.25;104293;1256;72349;-62
2023/04/18 10:31:27;;;;;;;3.00;1.30;;;;;;;22.93;30.72;99904.58;104457;1261;69819;-62
2023/04/18 10:33:59;;;;;;;5.40;1.30;;;;;;;22.88;30.66;99899.86;104540;1252;71567;-61
2023/04/18 10:37:04;;;;;;;7.50;1.30;;;;;;;22.90;30.50;99904.95;104417;1257;60869;-64
2023/04/18 10:39:56;;;;;;;1.70;0.90;;;;;;;22.92;30.62;99905.17;104548;1256;59747;-61
2023/04/18 10:42:46;;;;;;;5.40;1.70;;;;;;;22.99;30.51;99907.04;104290;1273;73774;-61
2023/04/18 10:45:18;;;;;;;4.40;1.30;;;;;;;23.03;30.36;99912.02;104441;1257;70144;-61
2023/04/18 10:47:47;;;;;;;3.40;1.20;;;;;;;22.97;30.01;99909.16;104704;1257;73086;-62
2023/04/18 10:50:16;;;;;;;3.90;1.20;;;;;;;22.95;30.56;99913.27;104467;1254;60407;-62
2023/04/18 10:52:45;;;;;;;4.30;1.50;;;;;;;22.93;30.93;99911.15;104276;1266;60043;-62
2023/04/18 10:55:18;;;;;;;5.10;1.40;;;;;;;22.87;31.21;99911.51;104336;1271;72307;-61
2023/04/18 10:57:47;;;;;;;5.30;1.30;;;;;;;22.82;31.48;99916.09;104309;1270;69691;-61
2023/04/18 11:00:17;;;;;;;5.20;1.40;;;;;;;22.79;31.37;99916.03;104366;1269;72610;-62
2023/04/18 11:02:48;;;;;;;6.30;1.40;;;;;;;22.73;31.38;99914.55;104433;1260;61790;-60
2023/04/18 11:05:19;;;;;;;3.40;1.40;;;;;;;22.68;31.06;99914.09;104642;1257;59955;-63
2023/04/18 11:07:47;;;;;;;6.40;1.20;;;;;;;22.67;31.18;99915.49;104568;1255;72514;-60
2023/04/18 11:10:20;;;;;;;7.70;1.40;;;;;;;22.70;31.06;99917.13;104626;1257;68912;-60
2023/04/18 11:12:49;;;;;;;3.50;1.50;;;;;;;22.73;31.09;99916.77;104392;1257;72007;-62
2023/04/18 11:15:21;;;;;;;6.50;1.70;;;;;;;22.71;30.98;99917.98;104891;1253;60531;-62
2023/04/18 11:18:08;;;;;;;5.90;1.40;;;;;;;22.67;30.74;99914.73;104740;1256;60523;-62
2023/04/18 11:20:38;;;;;;;3.90;1.30;;;;;;;22.64;30.85;99916.81;104562;1253;74058;-63
2023/04/18 11:23:21;;;;;;;5.40;1.30;;;;;;;22.57;30.73;99922.98;104756;1255;69714;-62
2023/04/18 11:25:53;;;;;;;12.90;1.70;;;;;;;22.53;30.34;99922.83;104853;1256;71965;-60
2023/04/18 11:28:23;;;;;;;2.60;0.90;;;;;;;22.36;30.18;99919.79;104239;1257;60648;-62
2023/04/18 11:30:56;;;;;;;3.60;0.90;;;;;;;22.27;30.19;99927.39;104383;1261;60553;-62
2023/04/18 11:33:26;;;;;;;2.90;0.80;;;;;;;22.15;30.17;99925.52;104710;1257;74700;-63
2023/04/18 11:35:57;;;;;;;7.10;1.20;;;;;;;22.01;30.20;99926.21;104541;1253;69277;-65
2023/04/18 11:38:32;;;;;;;1.50;0.80;;;;;;;21.92;30.33;99931.93;104354;1270;72149;-63
2023/04/18 11:41:01;;;;;;;2.20;1.20;;;;;;;21.83;30.99;99938.25;104238;1256;60455;-63